Time;durP1;ratioP1;P1;durP2;ratioP2;P2;SDS_P1;SDS_P2;PMS_P1;PMS_P2;Temp;Humidity;BMP_temperature;BMP_pressure;BME280_temperature;BME280_humidity;BME280_pressure;Samples;Min_cycle;Max_cycle;Signal;HPM_P1;HPM_P2
2022/08/15 00:00:54;;;;;;;;;;;23.00;67.10;;;;;;6185535;23;1901;-66
2022/08/15 00:03:20;;;;;;;;;;;23.00;67.10;;;;;;6159556;23;909;-65
2022/08/15 00:05:46;;;;;;;;;;;23.00;67.10;;;;;;6158239;23;1239;-65
2022/08/15 00:08:11;;;;;;;;;;;23.00;67.10;;;;;;6185138;23;982;-65
2022/08/15 00:10:37;;;;;;;;;;;23.00;67.10;;;;;;6185298;23;784;-66
2022/08/15 00:13:11;;;;;;;;;;;23.00;67.10;;;;;;6185594;23;1006;-66
2022/08/15 00:15:38;;;;;;;;;;;23.00;67.10;;;;;;6184527;23;1234;-66
2022/08/15 00:18:03;;;;;;;;;;;23.00;67.10;;;;;;6185374;23;867;-65
2022/08/15 00:20:29;;;;;;;;;;;23.00;67.10;;;;;;6185624;23;1881;-66
2022/08/15 00:22:55;;;;;;;;;;;23.00;67.10;;;;;;6185823;23;835;-66
2022/08/15 00:25:21;;;;;;;;;;;23.00;67.10;;;;;;6185510;23;1191;-65
2022/08/15 00:27:47;;;;;;;;;;;23.00;67.10;;;;;;6158559;23;1312;-65
2022/08/15 00:30:13;;;;;;;;;;;23.00;67.10;;;;;;6185583;23;871;-66
2022/08/15 00:32:38;;;;;;;;;;;23.00;67.10;;;;;;6185669;23;824;-65
2022/08/15 00:35:35;;;;;;;;;;;23.00;67.10;;;;;;6159080;23;1264;-66
2022/08/15 00:37:52;;;;;;;;;;;23.00;67.10;;;;;;6163099;23;1519;-67
2022/08/15 00:43:23;;;;;;;;;;;23.00;67.10;;;;;;6179465;23;1109;-64
2022/08/15 00:45:49;;;;;;;;;;;23.00;67.10;;;;;;6185180;23;1159;-66
2022/08/15 00:50:59;;;;;;;;;;;23.00;67.10;;;;;;6163204;23;674;-66
2022/08/15 00:53:25;;;;;;;;;;;23.10;67.20;;;;;;6159009;23;761;-65
2022/08/15 00:55:50;;;;;;;;;;;23.00;67.10;;;;;;6185077;23;1237;-66
2022/08/15 00:58:16;;;;;;;;;;;23.00;67.20;;;;;;6185177;23;824;-66
2022/08/15 01:00:43;;;;;;;;;;;23.00;67.10;;;;;;6185162;23;1892;-67
2022/08/15 01:03:11;;;;;;;;;;;23.00;67.20;;;;;;6159106;23;895;-64
2022/08/15 01:05:36;;;;;;;;;;;23.00;67.20;;;;;;6158642;23;1191;-64
2022/08/15 01:08:02;;;;;;;;;;;23.00;67.20;;;;;;6185391;23;860;-66
2022/08/15 01:10:27;;;;;;;;;;;23.00;67.10;;;;;;6185437;23;1026;-64
2022/08/15 01:12:53;;;;;;;;;;;23.00;67.10;;;;;;6185273;23;935;-64
2022/08/15 01:15:18;;;;;;;;;;;23.00;67.20;;;;;;6185127;23;1183;-65
2022/08/15 01:17:44;;;;;;;;;;;23.00;67.10;;;;;;6134153;23;987;-65
2022/08/15 01:20:12;;;;;;;;;;;23.00;67.10;;;;;;6185304;23;1916;-62
2022/08/15 01:22:56;;;;;;;;;;;23.00;67.20;;;;;;6158587;23;943;-65
2022/08/15 01:25:44;;;;;;;;;;;23.00;67.20;;;;;;6185046;23;1184;-69
2022/08/15 01:28:14;;;;;;;;;;;23.00;67.20;;;;;;6165512;23;1148;-65
2022/08/15 01:30:41;;;;;;;;;;;23.00;67.20;;;;;;6185562;23;853;-65
2022/08/15 01:33:06;;;;;;;;;;;23.00;67.20;;;;;;6159131;23;828;-65
2022/08/15 01:35:32;;;;;;;;;;;23.00;67.20;;;;;;6158348;23;1373;-66
2022/08/15 01:37:57;;;;;;;;;;;23.00;67.20;;;;;;6185310;23;877;-64
2022/08/15 01:40:31;;;;;;;;;;;23.00;67.20;;;;;;6185116;23;1901;-65
2022/08/15 01:42:57;;;;;;;;;;;23.00;67.20;;;;;;6158713;23;1239;-66
2022/08/15 01:45:23;;;;;;;;;;;23.00;67.20;;;;;;6184839;23;1561;-65
2022/08/15 01:47:51;;;;;;;;;;;23.00;67.20;;;;;;6185079;23;772;-65
2022/08/15 01:50:18;;;;;;;;;;;23.00;67.20;;;;;;6185312;23;1061;-65
2022/08/15 01:53:02;;;;;;;;;;;23.00;67.20;;;;;;6185173;23;776;-65
2022/08/15 01:55:30;;;;;;;;;;;23.00;67.20;;;;;;6184763;23;1168;-65
2022/08/15 01:57:56;;;;;;;;;;;23.00;67.20;;;;;;6158800;23;895;-67
2022/08/15 02:00:21;;;;;;;;;;;23.00;67.20;;;;;;6185362;23;1897;-66
2022/08/15 02:02:47;;;;;;;;;;;23.00;67.20;;;;;;6159111;23;982;-64
2022/08/15 02:05:12;;;;;;;;;;;23.00;67.20;;;;;;6184702;23;1293;-64
2022/08/15 02:07:38;;;;;;;;;;;23.00;67.20;;;;;;6184740;23;931;-66
2022/08/15 02:10:04;;;;;;;;;;;23.00;67.20;;;;;;6185361;23;823;-64
2022/08/15 02:12:31;;;;;;;;;;;23.00;67.20;;;;;;6159012;23;1027;-66
2022/08/15 02:14:57;;;;;;;;;;;23.00;67.20;;;;;;6184752;23;1283;-66
2022/08/15 02:17:22;;;;;;;;;;;23.00;67.20;;;;;;6184755;23;962;-67
2022/08/15 02:19:48;;;;;;;;;;;23.00;67.20;;;;;;6184981;23;1877;-65
2022/08/15 02:22:14;;;;;;;;;;;23.00;67.20;;;;;;6158740;23;1014;-65
2022/08/15 02:24:39;;;;;;;;;;;23.00;67.20;;;;;;6158956;23;1192;-66
2022/08/15 02:27:05;;;;;;;;;;;23.00;67.20;;;;;;6185101;23;809;-67
2022/08/15 02:29:30;;;;;;;;;;;23.00;67.20;;;;;;6185297;23;815;-65
2022/08/15 02:31:57;;;;;;;;;;;23.00;67.20;;;;;;6185044;23;1046;-65
2022/08/15 02:34:23;;;;;;;;;;;23.00;67.20;;;;;;6158474;23;1187;-65
2022/08/15 02:36:48;;;;;;;;;;;23.00;67.20;;;;;;6184925;23;867;-65
2022/08/15 02:39:14;;;;;;;;;;;23.00;67.20;;;;;;6184944;23;1912;-64
2022/08/15 02:41:42;;;;;;;;;;;23.00;67.20;;;;;;6185291;23;824;-64
2022/08/15 02:44:08;;;;;;;;;;;23.00;67.20;;;;;;6158686;23;1251;-66
2022/08/15 02:46:36;;;;;;;;;;;23.00;67.20;;;;;;6184896;23;699;-66
2022/08/15 02:49:03;;;;;;;;;;;23.00;67.20;;;;;;6184865;23;916;-66
2022/08/15 02:51:28;;;;;;;;;;;23.00;67.20;;;;;;6159600;23;1471;-66
2022/08/15 02:53:54;;;;;;;;;;;23.00;67.30;;;;;;6160530;23;975;-66
2022/08/15 02:56:20;;;;;;;;;;;23.00;67.30;;;;;;6186239;23;1314;-65
2022/08/15 02:58:46;;;;;;;;;;;23.00;67.30;;;;;;6160443;23;1897;-67
2022/08/15 03:01:12;;;;;;;;;;;23.00;67.30;;;;;;6186894;23;1065;-64
2022/08/15 03:03:38;;;;;;;;;;;23.00;67.20;;;;;;6186450;23;816;-66
2022/08/15 03:06:03;;;;;;;;;;;23.00;67.30;;;;;;6159892;23;1176;-64
2022/08/15 03:08:29;;;;;;;;;;;23.00;68.00;;;;;;6160179;23;1060;-65
2022/08/15 03:10:55;;;;;;;;;;;23.00;67.30;;;;;;6186508;23;998;-66
2022/08/15 03:13:21;;;;;;;;;;;23.00;67.20;;;;;;6160301;23;828;-66
2022/08/15 03:15:52;;;;;;;;;;;23.00;67.30;;;;;;6185904;23;1210;-65
2022/08/15 03:18:19;;;;;;;;;;;23.00;67.30;;;;;;6160707;23;840;-66
2022/08/15 03:20:46;;;;;;;;;;;23.00;67.30;;;;;;6160350;23;1932;-68
2022/08/15 03:23:11;;;;;;;;;;;23.00;67.30;;;;;;6186469;23;870;-65
2022/08/15 03:25:45;;;;;;;;;;;23.00;67.30;;;;;;6185988;23;1171;-66
2022/08/15 03:28:10;;;;;;;;;;;23.10;67.30;;;;;;6160168;23;967;-64
2022/08/15 03:30:37;;;;;;;;;;;23.10;67.30;;;;;;6160186;23;945;-65
2022/08/15 03:33:03;;;;;;;;;;;23.00;67.40;;;;;;6160160;23;922;-65
2022/08/15 03:35:29;;;;;;;;;;;23.10;67.40;;;;;;6159769;23;1273;-65
2022/08/15 03:37:55;;;;;;;;;;;23.00;67.30;;;;;;6186208;23;1092;-64
2022/08/15 03:40:20;;;;;;;;;;;23.00;67.30;;;;;;6186683;23;1896;-64
2022/08/15 03:42:57;;;;;;;;;;;23.00;67.30;;;;;;6159980;23;776;-65
2022/08/15 03:45:22;;;;;;;;;;;23.00;67.30;;;;;;6186553;23;1167;-64
2022/08/15 03:47:48;;;;;;;;;;;23.00;67.40;;;;;;6186039;23;903;-65
2022/08/15 03:50:14;;;;;;;;;;;23.00;67.40;;;;;;6186369;23;919;-64
2022/08/15 03:52:58;;;;;;;;;;;23.00;67.30;;;;;;6186436;23;865;-66
2022/08/15 03:55:24;;;;;;;;;;;23.00;67.30;;;;;;6159522;23;1195;-67
2022/08/15 03:57:50;;;;;;;;;;;23.00;67.40;;;;;;6185666;23;1061;-67
2022/08/15 04:00:16;;;;;;;;;;;23.00;67.30;;;;;;6186184;23;1936;-67
2022/08/15 04:02:41;;;;;;;;;;;23.00;67.30;;;;;;6159261;23;853;-67
2022/08/15 04:05:07;;;;;;;;;;;23.00;67.30;;;;;;6186078;23;1258;-67
2022/08/15 04:07:35;;;;;;;;;;;23.00;67.40;;;;;;6186194;23;828;-67
2022/08/15 04:10:05;;;;;;;;;;;23.00;67.40;;;;;;6159591;23;836;-66
2022/08/15 04:12:30;;;;;;;;;;;23.00;67.30;;;;;;6186642;23;824;-64
2022/08/15 04:14:56;;;;;;;;;;;23.00;67.30;;;;;;6159748;23;1192;-66
2022/08/15 04:17:21;;;;;;;;;;;23.00;67.40;;;;;;6186713;23;912;-66
2022/08/15 04:19:47;;;;;;;;;;;23.10;67.40;;;;;;6186901;23;1901;-64
2022/08/15 04:22:12;;;;;;;;;;;23.00;67.40;;;;;;6160394;23;820;-67
2022/08/15 04:24:39;;;;;;;;;;;23.00;67.30;;;;;;6185941;23;1236;-66
2022/08/15 04:27:05;;;;;;;;;;;23.00;67.40;;;;;;6185850;23;867;-65
2022/08/15 04:29:30;;;;;;;;;;;23.00;67.40;;;;;;6186479;23;820;-65
2022/08/15 04:31:56;;;;;;;;;;;23.00;67.40;;;;;;6186770;23;861;-66
2022/08/15 04:34:21;;;;;;;;;;;23.00;67.40;;;;;;6159573;23;1159;-66
2022/08/15 04:36:47;;;;;;;;;;;23.00;67.40;;;;;;6186021;23;1063;-65
2022/08/15 04:39:12;;;;;;;;;;;23.00;67.40;;;;;;6185606;23;1881;-65
2022/08/15 04:41:38;;;;;;;;;;;23.00;67.40;;;;;;6185809;23;828;-65
2022/08/15 04:44:04;;;;;;;;;;;23.00;67.40;;;;;;6185263;23;1211;-66
2022/08/15 04:46:29;;;;;;;;;;;23.00;67.40;;;;;;6185275;23;813;-66
2022/08/15 04:48:56;;;;;;;;;;;23.00;67.40;;;;;;6185827;23;912;-66
2022/08/15 04:51:21;;;;;;;;;;;23.00;67.40;;;;;;6185636;23;838;-66
2022/08/15 04:53:46;;;;;;;;;;;23.00;67.40;;;;;;6185716;23;842;-65
2022/08/15 04:56:12;;;;;;;;;;;23.00;67.40;;;;;;6185325;23;1168;-66
2022/08/15 04:58:37;;;;;;;;;;;23.00;67.40;;;;;;6185516;23;947;-66
2022/08/15 05:01:07;;;;;;;;;;;23.00;67.40;;;;;;6185506;23;1948;-65
2022/08/15 05:03:33;;;;;;;;;;;23.00;67.40;;;;;;6159306;23;867;-65
2022/08/15 05:05:59;;;;;;;;;;;23.00;67.40;;;;;;6185129;23;1262;-66
2022/08/15 05:08:28;;;;;;;;;;;23.00;68.20;;;;;;6158949;23;888;-66
2022/08/15 05:10:55;;;;;;;;;;;23.00;67.40;;;;;;6185530;23;856;-66
2022/08/15 05:13:21;;;;;;;;;;;23.00;68.20;;;;;;6159058;23;877;-67
2022/08/15 05:15:47;;;;;;;;;;;23.00;67.40;;;;;;6158468;23;1191;-67
2022/08/15 05:18:12;;;;;;;;;;;23.00;67.40;;;;;;6185293;23;819;-67
2022/08/15 05:20:39;;;;;;;;;;;23.00;67.40;;;;;;6185213;23;1946;-67
2022/08/15 05:23:06;;;;;;;;;;;23.00;67.40;;;;;;6185161;23;882;-67
2022/08/15 05:25:32;;;;;;;;;;;23.00;67.40;;;;;;6184966;23;1183;-67
2022/08/15 05:27:57;;;;;;;;;;;23.00;67.50;;;;;;6185313;23;781;-68
2022/08/15 05:30:23;;;;;;;;;;;23.00;67.50;;;;;;6159307;23;895;-68
2022/08/15 05:32:59;;;;;;;;;;;23.00;67.50;;;;;;6158791;23;1014;-67
2022/08/15 05:35:24;;;;;;;;;;;23.00;67.50;;;;;;6185404;23;1299;-66
2022/08/15 05:37:51;;;;;;;;;;;23.10;67.60;;;;;;6184891;23;800;-67
2022/08/15 05:40:17;;;;;;;;;;;23.00;67.50;;;;;;6185146;23;1885;-67
2022/08/15 05:42:47;;;;;;;;;;;23.00;67.50;;;;;;6159238;23;805;-67
2022/08/15 05:45:22;;;;;;;;;;;23.00;67.40;;;;;;6166952;23;1282;-68
2022/08/15 05:48:00;;;;;;;;;;;23.00;67.50;;;;;;6183517;23;753;-67
2022/08/15 05:50:30;;;;;;;;;;;23.00;67.40;;;;;;6183806;23;776;-66
2022/08/15 05:53:08;;;;;;;;;;;23.00;67.40;;;;;;6185222;23;816;-67
2022/08/15 05:55:33;;;;;;;;;;;23.00;67.40;;;;;;6184801;23;1282;-67
2022/08/15 05:58:09;;;;;;;;;;;23.00;67.40;;;;;;6171866;23;829;-65
2022/08/15 06:00:34;;;;;;;;;;;23.00;67.50;;;;;;6180485;23;1926;-66
2022/08/15 06:03:11;;;;;;;;;;;23.00;67.40;;;;;;6182288;23;904;-65
2022/08/15 06:05:41;;;;;;;;;;;23.00;68.20;;;;;;6181166;23;1306;-66
2022/08/15 06:08:12;;;;;;;;;;;23.00;67.40;;;;;;6182319;23;1401;-66
2022/08/15 06:10:43;;;;;;;;;;;23.00;67.40;;;;;;6184044;23;923;-66
2022/08/15 06:13:10;;;;;;;;;;;23.00;67.50;;;;;;6182311;23;848;-67
2022/08/15 06:15:54;;;;;;;;;;;23.00;67.40;;;;;;6181949;23;1292;-68
2022/08/15 06:18:20;;;;;;;;;;;23.00;67.50;;;;;;6184049;23;847;-66
2022/08/15 06:21:03;;;;;;;;;;;23.00;67.40;;;;;;6182164;23;1889;-67
2022/08/15 06:23:29;;;;;;;;;;;23.00;67.50;;;;;;6182185;23;1077;-69
2022/08/15 06:26:12;;;;;;;;;;;23.00;67.50;;;;;;6183534;23;1210;-67
2022/08/15 06:28:47;;;;;;;;;;;23.00;67.50;;;;;;6184329;23;1054;-68
2022/08/15 06:31:20;;;;;;;;;;;23.00;67.50;;;;;;6185697;23;892;-67
2022/08/15 06:34:15;;;;;;;;;;;23.00;67.50;;;;;;6184906;23;908;-67
2022/08/15 06:36:59;;;;;;;;;;;23.00;67.60;;;;;;6161122;23;1219;-67
2022/08/15 06:39:43;;;;;;;;;;;23.00;67.60;;;;;;6186500;23;1905;-67
2022/08/15 06:42:27;;;;;;;;;;;23.00;67.60;;;;;;6185166;23;860;-66
2022/08/15 06:44:54;;;;;;;;;;;23.00;67.60;;;;;;6186423;23;1221;-67
2022/08/15 06:47:21;;;;;;;;;;;23.00;67.60;;;;;;6160078;23;844;-67
2022/08/15 06:49:47;;;;;;;;;;;23.00;67.60;;;;;;6186780;23;804;-65
2022/08/15 06:52:13;;;;;;;;;;;23.00;67.60;;;;;;6187066;23;822;-66
2022/08/15 06:54:39;;;;;;;;;;;23.00;67.70;;;;;;6160260;23;1215;-66
2022/08/15 06:57:18;;;;;;;;;;;23.00;67.70;;;;;;6159909;23;896;-67
2022/08/15 06:59:45;;;;;;;;;;;23.00;67.70;;;;;;6186594;23;1940;-66
2022/08/15 07:02:29;;;;;;;;;;;23.00;67.70;;;;;;6135694;23;1191;-65
2022/08/15 07:05:05;;;;;;;;;;;23.00;67.70;;;;;;6186601;23;1205;-65
2022/08/15 07:07:49;;;;;;;;;;;23.00;67.70;;;;;;6160527;23;784;-65
2022/08/15 07:10:26;;;;;;;;;;;23.00;67.70;;;;;;6186519;23;840;-65
2022/08/15 07:12:57;;;;;;;;;;;23.00;67.70;;;;;;6160280;23;804;-65
2022/08/15 07:15:37;;;;;;;;;;;23.00;67.80;;;;;;6159753;23;1181;-65
2022/08/15 07:18:06;;;;;;;;;;;23.00;67.80;;;;;;6160314;23;890;-65
2022/08/15 07:20:31;;;;;;;;;;;23.00;67.80;;;;;;6160826;23;1893;-66
2022/08/15 07:22:57;;;;;;;;;;;23.00;67.80;;;;;;6186158;23;828;-65
2022/08/15 07:25:26;;;;;;;;;;;23.00;67.80;;;;;;6186142;23;1285;-64
2022/08/15 07:28:01;;;;;;;;;;;23.00;67.80;;;;;;6186009;23;975;-65
2022/08/15 07:30:44;;;;;;;;;;;23.00;67.90;;;;;;6186424;23;1057;-65
2022/08/15 07:33:10;;;;;;;;;;;23.00;67.90;;;;;;6161054;23;1021;-66
2022/08/15 07:35:35;;;;;;;;;;;23.00;67.90;;;;;;6158350;23;1273;-65
2022/08/15 07:38:06;;;;;;;;;;;23.00;67.90;;;;;;6185480;23;864;-66
2022/08/15 07:40:39;;;;;;;;;;;23.00;67.90;;;;;;6186132;23;1889;-65
2022/08/15 07:43:15;;;;;;;;;;;23.00;67.80;;;;;;6186229;23;951;-66
2022/08/15 07:45:41;;;;;;;;;;;23.00;67.90;;;;;;6173535;23;1642;-64
2022/08/15 07:48:20;;;;;;;;;;;23.00;67.90;;;;;;6184797;23;848;-67
2022/08/15 07:50:46;;;;;;;;;;;23.00;67.90;;;;;;6186372;23;784;-66
2022/08/15 07:53:20;;;;;;;;;;;23.00;67.80;;;;;;6184383;23;1248;-67
2022/08/15 07:56:04;;;;;;;;;;;23.00;67.80;;;;;;6186485;23;1341;-66
2022/08/15 07:58:30;;;;;;;;;;;23.00;67.80;;;;;;6186184;23;845;-65
2022/08/15 08:01:10;;;;;;;;;;;23.00;67.80;;;;;;6184606;23;1897;-65
2022/08/15 08:03:35;;;;;;;;;;;23.00;67.80;;;;;;6184111;23;1034;-66
2022/08/15 08:06:09;;;;;;;;;;;23.00;67.80;;;;;;6185534;23;1269;-67
2022/08/15 08:08:38;;;;;;;;;;;23.00;67.90;;;;;;6184709;23;796;-66
2022/08/15 08:11:06;;;;;;;;;;;23.00;68.10;;;;;;6184448;23;943;-67
2022/08/15 08:13:55;;;;;;;;;;;23.00;68.10;;;;;;6184277;23;880;-67
2022/08/15 08:16:28;;;;;;;;;;;23.00;68.00;;;;;;6129762;23;1353;-66
2022/08/15 08:19:12;;;;;;;;;;;23.00;68.10;;;;;;6184522;23;1928;-67
2022/08/15 08:21:57;;;;;;;;;;;23.00;68.00;;;;;;6185797;23;919;-66
2022/08/15 08:24:25;;;;;;;;;;;23.00;68.10;;;;;;6185423;23;1192;-66
2022/08/15 08:26:57;;;;;;;;;;;23.00;68.20;;;;;;6185547;23;800;-66
2022/08/15 08:29:30;;;;;;;;;;;23.00;68.20;;;;;;6184133;23;781;-66
2022/08/15 08:32:17;;;;;;;;;;;23.00;68.20;;;;;;6185363;23;1161;-66
2022/08/15 08:34:56;;;;;;;;;;;23.00;68.20;;;;;;6184839;23;1745;-66
2022/08/15 08:37:28;;;;;;;;;;;23.10;68.30;;;;;;6184234;23;850;-66
2022/08/15 08:41:24;;;;;;;;;;;23.10;68.30;;;;;;6183932;23;1959;-67
2022/08/15 08:43:05;;;;;;;;;;;23.10;68.30;;;;;;6183136;23;1118;-68
2022/08/15 08:45:42;;;;;;;;;;;23.10;68.30;;;;;;6185194;23;1243;-67
2022/08/15 08:48:22;;;;;;;;;;;23.10;68.30;;;;;;6159794;23;801;-67
2022/08/15 08:50:48;;;;;;;;;;;23.10;68.30;;;;;;6158843;23;1078;-66
2022/08/15 08:53:29;;;;;;;;;;;23.10;68.30;;;;;;6159102;23;801;-66
2022/08/15 08:56:08;;;;;;;;;;;23.00;68.20;;;;;;6185168;23;1279;-64
2022/08/15 08:58:42;;;;;;;;;;;23.10;68.20;;;;;;6185583;23;807;-65
2022/08/15 09:01:08;;;;;;;;;;;23.10;68.30;;;;;;6159053;23;1940;-64
2022/08/15 09:03:35;;;;;;;;;;;23.10;68.20;;;;;;6159029;23;1049;-64
2022/08/15 09:06:01;;;;;;;;;;;23.10;68.20;;;;;;6158435;23;1313;-64
2022/08/15 09:08:27;;;;;;;;;;;23.10;68.20;;;;;;6185602;23;816;-65
2022/08/15 09:10:56;;;;;;;;;;;23.10;68.20;;;;;;6159207;23;954;-66
2022/08/15 09:13:34;;;;;;;;;;;23.10;68.20;;;;;;6158603;23;959;-66
2022/08/15 09:16:19;;;;;;;;;;;23.10;68.20;;;;;;6185232;23;1331;-66
2022/08/15 09:18:59;;;;;;;;;;;23.10;68.30;;;;;;6185330;23;828;-65
2022/08/15 09:21:24;;;;;;;;;;;23.10;68.20;;;;;;6159203;23;871;-65
2022/08/15 09:23:50;;;;;;;;;;;23.10;68.30;;;;;;6158929;23;765;-65
2022/08/15 09:26:15;;;;;;;;;;;23.10;68.40;;;;;;6185169;23;1164;-65
2022/08/15 09:28:42;;;;;;;;;;;23.10;68.50;;;;;;6185371;23;784;-66
2022/08/15 09:31:18;;;;;;;;;;;23.10;68.50;;;;;;6158787;23;927;-65
2022/08/15 09:33:53;;;;;;;;;;;23.10;68.50;;;;;;6185342;23;769;-65
2022/08/15 09:36:27;;;;;;;;;;;23.10;68.40;;;;;;6185046;23;1270;-66
2022/08/15 09:38:55;;;;;;;;;;;23.10;68.40;;;;;;6185112;23;836;-65
2022/08/15 09:41:25;;;;;;;;;;;23.10;68.60;;;;;;6185005;23;916;-63
2022/08/15 09:44:02;;;;;;;;;;;23.10;68.60;;;;;;6185246;23;864;-64
2022/08/15 09:46:46;;;;;;;;;;;23.10;68.50;;;;;;6202201;22;1947;-66
2022/08/15 09:49:12;;;;;;;;;;;23.10;68.40;;;;;;6213518;23;2089;-66
2022/08/15 09:51:57;;;;;;;;;;;23.10;68.40;;;;;;6215311;23;816;-65
2022/08/15 09:54:24;;;;;;;;;;;23.10;68.40;;;;;;6213651;23;1246;-66
2022/08/15 09:56:51;;;;;;;;;;;23.10;68.70;;;;;;6213183;23;1303;-66
2022/08/15 09:59:20;;;;;;;;;;;23.10;68.60;;;;;;6214101;23;1940;-66
2022/08/15 10:01:46;;;;;;;;;;;23.10;68.50;;;;;;6215548;23;812;-66
2022/08/15 10:04:12;;;;;;;;;;;23.10;68.50;;;;;;6217161;23;776;-66
2022/08/15 10:06:57;;;;;;;;;;;23.10;68.40;;;;;;6215573;23;1200;-66
2022/08/15 10:09:29;;;;;;;;;;;23.10;68.50;;;;;;6215479;23;1305;-65
2022/08/15 10:11:59;;;;;;;;;;;23.10;68.40;;;;;;6217164;23;828;-66
2022/08/15 10:14:26;;;;;;;;;;;23.10;68.50;;;;;;6215651;23;1322;-66
2022/08/15 10:16:52;;;;;;;;;;;23.10;68.50;;;;;;6214737;23;1215;-66
2022/08/15 10:19:37;;;;;;;;;;;23.10;69.60;;;;;;6214793;23;1920;-65
2022/08/15 10:22:22;;;;;;;;;;;23.10;68.90;;;;;;6215445;23;859;-65
2022/08/15 10:25:23;;;;;;;;;;;23.10;69.10;;;;;;6217159;23;831;-65
2022/08/15 10:28:05;;;;;;;;;;;23.20;69.10;;;;;;6095531;23;1286;-65
2022/08/15 10:30:32;;;;;;;;;;;23.20;69.40;;;;;;6176855;23;1269;-65
2022/08/15 10:32:58;;;;;;;;;;;23.20;69.40;;;;;;6215641;23;828;-65
2022/08/15 10:35:27;;;;;;;;;;;23.20;69.60;;;;;;6215082;23;1286;-67
2022/08/15 10:38:00;;;;;;;;;;;23.20;69.40;;;;;;6215296;23;986;-67
2022/08/15 10:40:34;;;;;;;;;;;23.20;69.40;;;;;;6215458;23;1889;-65
2022/08/15 10:43:17;;;;;;;;;;;23.20;69.30;;;;;;6215395;23;808;-65
2022/08/15 10:45:59;;;;;;;;;;;23.20;69.40;;;;;;6214710;23;1223;-65
2022/08/15 10:48:40;;;;;;;;;;;23.20;69.50;;;;;;6190209;23;1322;-66
2022/08/15 10:51:25;;;;;;;;;;;23.20;69.60;;;;;;6215492;23;839;-67
2022/08/15 10:53:53;;;;;;;;;;;23.20;69.60;;;;;;6216520;23;799;-66
2022/08/15 10:56:20;;;;;;;;;;;23.20;69.60;;;;;;6215526;23;1207;-66
2022/08/15 10:58:45;;;;;;;;;;;23.20;69.60;;;;;;6189952;23;1364;-67
2022/08/15 11:01:11;;;;;;;;;;;23.20;69.70;;;;;;6214905;23;1889;-67
2022/08/15 11:03:38;;;;;;;;;;;23.20;69.70;;;;;;6216372;23;979;-67
2022/08/15 11:06:08;;;;;;;;;;;23.20;69.80;;;;;;6214634;23;1204;-67
2022/08/15 11:08:36;;;;;;;;;;;23.20;69.80;;;;;;6214762;23;791;-67
2022/08/15 11:11:05;;;;;;;;;;;23.20;69.80;;;;;;6215019;23;883;-66
2022/08/15 11:13:31;;;;;;;;;;;23.20;69.80;;;;;;6214839;23;753;-66
2022/08/15 11:15:57;;;;;;;;;;;23.20;69.80;;;;;;6214796;23;1192;-67
2022/08/15 11:18:27;;;;;;;;;;;23.20;69.70;;;;;;6214881;23;895;-67
2022/08/15 11:20:55;;;;;;;;;;;23.20;69.60;;;;;;6215006;23;1889;-66
2022/08/15 11:23:31;;;;;;;;;;;23.20;69.40;;;;;;6214607;23;777;-66
2022/08/15 11:25:57;;;;;;;;;;;23.20;69.70;;;;;;6214400;23;1192;-66
2022/08/15 11:28:25;;;;;;;;;;;23.20;69.90;;;;;;6214904;23;829;-69
2022/08/15 11:31:11;;;;;;;;;;;23.20;69.90;;;;;;6216338;23;788;-70
2022/08/15 11:33:40;;;;;;;;;;;23.30;69.60;;;;;;6213647;23;1296;-69
2022/08/15 11:36:08;;;;;;;;;;;23.30;69.40;;;;;;6215225;23;1261;-68
2022/08/15 11:38:37;;;;;;;;;;;23.30;69.20;;;;;;6176604;23;1414;-70
2022/08/15 11:41:02;;;;;;;;;;;23.40;69.00;;;;;;6213787;23;1893;-69
2022/08/15 11:43:28;;;;;;;;;;;23.40;68.80;;;;;;6213343;23;954;-71
2022/08/15 11:45:53;;;;;;;;;;;23.40;68.60;;;;;;6212896;23;1279;-71
2022/08/15 11:48:39;;;;;;;;;;;23.40;68.50;;;;;;6213357;23;756;-70
2022/08/15 11:51:13;;;;;;;;;;;23.50;68.50;;;;;;6214418;23;1093;-69
2022/08/15 11:53:45;;;;;;;;;;;23.50;68.20;;;;;;6214416;23;757;-69
2022/08/15 11:56:11;;;;;;;;;;;23.50;68.10;;;;;;6212745;23;1343;-68
2022/08/15 11:58:38;;;;;;;;;;;23.50;67.90;;;;;;6212526;23;816;-70
2022/08/15 12:01:22;;;;;;;;;;;23.50;67.90;;;;;;6187867;23;1922;-67
2022/08/15 12:04:04;;;;;;;;;;;23.50;67.80;;;;;;6213034;23;1416;-68
2022/08/15 12:06:36;;;;;;;;;;;23.50;67.70;;;;;;6212827;23;1213;-69
2022/08/15 12:09:09;;;;;;;;;;;23.60;68.10;;;;;;6214332;23;828;-69
2022/08/15 12:11:39;;;;;;;;;;;23.60;68.10;;;;;;6214157;23;931;-68
2022/08/15 12:14:18;;;;;;;;;;;23.60;67.90;;;;;;6213177;23;767;-69
2022/08/15 12:16:45;;;;;;;;;;;23.60;67.20;;;;;;6212788;23;1192;-69
2022/08/15 12:19:29;;;;;;;;;;;23.70;66.40;;;;;;6213327;23;1940;-70
2022/08/15 12:21:59;;;;;;;;;;;23.70;65.40;;;;;;6214648;23;1011;-69
2022/08/15 12:24:29;;;;;;;;;;;23.70;65.50;;;;;;6212580;23;800;-69
2022/08/15 12:26:57;;;;;;;;;;;23.80;65.30;;;;;;6212628;23;1624;-69
2022/08/15 12:29:24;;;;;;;;;;;23.80;65.10;;;;;;6213046;23;854;-69
2022/08/15 12:31:49;;;;;;;;;;;23.80;65.10;;;;;;6213260;23;827;-71
2022/08/15 12:34:20;;;;;;;;;;;23.80;64.90;;;;;;6212256;23;777;-68
2022/08/15 12:36:46;;;;;;;;;;;23.80;64.80;;;;;;6212563;23;1330;-69
2022/08/15 12:39:11;;;;;;;;;;;23.80;64.70;;;;;;6212405;23;1934;-70
2022/08/15 12:41:38;;;;;;;;;;;23.80;64.90;;;;;;6213249;23;820;-71
2022/08/15 12:44:04;;;;;;;;;;;23.80;64.80;;;;;;6212697;23;820;-70
2022/08/15 12:46:29;;;;;;;;;;;23.90;64.30;;;;;;6212228;23;1208;-69
2022/08/15 12:48:55;;;;;;;;;;;23.90;64.00;;;;;;6212660;23;816;-70
2022/08/15 12:51:20;;;;;;;;;;;24.00;63.80;;;;;;6214425;23;1022;-70
2022/08/15 12:53:46;;;;;;;;;;;24.00;63.90;;;;;;6212633;23;935;-69
2022/08/15 12:56:11;;;;;;;;;;;24.00;64.00;;;;;;6211997;23;1305;-69
2022/08/15 12:58:37;;;;;;;;;;;24.00;63.70;;;;;;6214329;23;784;-68
2022/08/15 13:01:03;;;;;;;;;;;24.00;63.80;;;;;;6214272;23;1935;-68
2022/08/15 13:03:29;;;;;;;;;;;24.10;64.00;;;;;;6212740;23;958;-68
2022/08/15 13:05:55;;;;;;;;;;;24.10;63.50;;;;;;6211764;23;1192;-67
2022/08/15 13:08:21;;;;;;;;;;;24.10;63.00;;;;;;6214284;23;796;-67
2022/08/15 13:10:46;;;;;;;;;;;24.10;63.20;;;;;;6214054;23;1034;-67
2022/08/15 13:13:12;;;;;;;;;;;24.10;63.00;;;;;;6212202;23;908;-67
2022/08/15 13:15:37;;;;;;;;;;;24.10;62.80;;;;;;6214954;23;1195;-67
2022/08/15 13:18:04;;;;;;;;;;;24.20;62.60;;;;;;6213853;23;872;-67
2022/08/15 13:25:58;;;;;;;;;;;24.20;62.80;;;;;;6214679;23;1618;-67
2022/08/15 13:28:24;;;;;;;;;;;24.30;62.40;;;;;;6215178;23;815;-67
2022/08/15 13:30:51;;;;;;;;;;;24.30;62.60;;;;;;6215128;23;803;-68
2022/08/15 13:33:17;;;;;;;;;;;24.30;62.40;;;;;;6213769;23;725;-68
2022/08/15 13:35:42;;;;;;;;;;;24.30;62.10;;;;;;6212895;23;1152;-67
2022/08/15 13:38:08;;;;;;;;;;;24.20;62.50;;;;;;6214505;23;994;-68
2022/08/15 13:40:33;;;;;;;;;;;24.20;62.90;;;;;;6214821;23;1885;-67
2022/08/15 13:43:01;;;;;;;;;;;24.20;63.40;;;;;;6213358;23;978;-66
2022/08/15 13:45:27;;;;;;;;;;;24.20;63.80;;;;;;6213209;23;1196;-68
2022/08/15 13:47:52;;;;;;;;;;;24.10;64.00;;;;;;6214901;23;862;-67
2022/08/15 13:50:18;;;;;;;;;;;24.10;64.20;;;;;;6215012;23;777;-67
2022/08/15 13:52:43;;;;;;;;;;;24.00;64.40;;;;;;6214927;23;906;-66
2022/08/15 13:55:09;;;;;;;;;;;24.00;64.60;;;;;;6214946;23;1052;-66
2022/08/15 13:57:35;;;;;;;;;;;23.90;64.80;;;;;;6214341;23;1117;-65
2022/08/15 14:00:00;;;;;;;;;;;23.90;64.90;;;;;;6214242;23;1893;-66
2022/08/15 14:02:26;;;;;;;;;;;23.80;65.10;;;;;;6213475;23;914;-66
2022/08/15 14:04:51;;;;;;;;;;;23.80;65.20;;;;;;6213094;23;908;-66
2022/08/15 14:07:17;;;;;;;;;;;23.80;65.40;;;;;;6213100;23;1259;-66
2022/08/15 14:09:42;;;;;;;;;;;23.80;65.60;;;;;;6215131;23;862;-66
2022/08/15 14:12:08;;;;;;;;;;;23.80;65.70;;;;;;6213326;23;831;-66
2022/08/15 14:14:33;;;;;;;;;;;23.70;65.70;;;;;;6188462;23;1223;-66
2022/08/15 14:16:59;;;;;;;;;;;23.70;65.80;;;;;;6188082;23;1279;-66
2022/08/15 14:19:25;;;;;;;;;;;23.70;66.00;;;;;;6214749;23;1893;-67
2022/08/15 14:21:50;;;;;;;;;;;23.70;66.00;;;;;;6213274;23;1077;-67
2022/08/15 14:24:16;;;;;;;;;;;23.70;66.10;;;;;;6213231;23;880;-68
2022/08/15 14:26:43;;;;;;;;;;;23.70;66.10;;;;;;6212765;23;1259;-68
2022/08/15 14:29:22;;;;;;;;;;;23.70;66.30;;;;;;6213406;23;855;-67
2022/08/15 14:31:49;;;;;;;;;;;23.60;66.30;;;;;;6213612;23;796;-67
2022/08/15 14:34:14;;;;;;;;;;;23.60;66.30;;;;;;6214753;23;807;-67
2022/08/15 14:36:41;;;;;;;;;;;23.60;66.40;;;;;;6212935;23;1202;-68
2022/08/15 14:39:07;;;;;;;;;;;23.60;66.40;;;;;;6213328;23;1885;-68
2022/08/15 14:41:33;;;;;;;;;;;23.60;66.40;;;;;;6213127;23;1081;-68
2022/08/15 14:43:58;;;;;;;;;;;23.60;66.50;;;;;;6214920;23;796;-68
2022/08/15 14:46:24;;;;;;;;;;;23.60;66.50;;;;;;6212721;23;1180;-67
2022/08/15 14:48:50;;;;;;;;;;;23.60;66.60;;;;;;6215039;23;792;-68
2022/08/15 14:51:16;;;;;;;;;;;23.60;66.60;;;;;;6215069;23;796;-67
2022/08/15 14:53:43;;;;;;;;;;;23.50;66.60;;;;;;6215210;23;899;-67
2022/08/15 14:56:09;;;;;;;;;;;23.50;66.60;;;;;;6216304;23;1224;-67
2022/08/15 14:58:35;;;;;;;;;;;23.50;66.70;;;;;;6215277;23;796;-67
2022/08/15 15:01:00;;;;;;;;;;;23.50;66.70;;;;;;6215319;23;1936;-67